Time;durP1;ratioP1;P1;durP2;ratioP2;P2;SDS_P1;SDS_P2;PMS_P1;PMS_P2;Temp;Humidity;BMP_temperature;BMP_pressure;BME280_temperature;BME280_humidity;BME280_pressure;Samples;Min_cycle;Max_cycle;Signal;HPM_P1;HPM_P2
2022/02/21 00:01:47;;;;;;;;;;;6.50;99.90;;;;;;5008859;28;19922;-85
2022/02/21 00:04:13;;;;;;;;;;;6.50;99.90;;;;;;5012888;28;20008;-83
2022/02/21 00:06:38;;;;;;;;;;;6.50;99.90;;;;;;4989653;28;20372;-83
2022/02/21 00:09:04;;;;;;;;;;;6.50;99.90;;;;;;5001426;28;19913;-84
2022/02/21 00:11:30;;;;;;;;;;;6.50;99.90;;;;;;5006948;28;19949;-84
2022/02/21 00:13:57;;;;;;;;;;;6.50;99.90;;;;;;4988088;28;20303;-83
2022/02/21 00:16:22;;;;;;;;;;;6.50;99.90;;;;;;4992786;28;19953;-82
2022/02/21 00:18:48;;;;;;;;;;;6.50;99.90;;;;;;5006047;28;19949;-81
2022/02/21 00:21:14;;;;;;;;;;;6.50;99.90;;;;;;5012270;28;19976;-80
2022/02/21 00:23:40;;;;;;;;;;;6.50;99.90;;;;;;4978615;28;19922;-81
2022/02/21 00:26:05;;;;;;;;;;;6.50;99.90;;;;;;4987978;28;19918;-83
2022/02/21 00:28:31;;;;;;;;;;;6.50;99.90;;;;;;4975164;28;19976;-83
2022/02/21 00:30:58;;;;;;;;;;;6.50;99.90;;;;;;4996386;28;20012;-82
2022/02/21 00:33:23;;;;;;;;;;;6.50;99.90;;;;;;5009495;28;19983;-81
2022/02/21 00:35:49;;;;;;;;;;;6.50;99.90;;;;;;4989553;28;19918;-82
2022/02/21 00:38:14;;;;;;;;;;;6.50;99.90;;;;;;4973773;28;19941;-84
2022/02/21 00:40:40;;;;;;;;;;;6.60;99.90;;;;;;4993889;28;19918;-83
2022/02/21 00:43:06;;;;;;;;;;;6.60;99.90;;;;;;4994642;28;19917;-83
2022/02/21 00:45:31;;;;;;;;;;;6.60;99.90;;;;;;5002147;28;19918;-82
2022/02/21 00:47:57;;;;;;;;;;;6.60;99.90;;;;;;4991583;28;19925;-82
2022/02/21 00:50:25;;;;;;;;;;;6.60;99.90;;;;;;4978305;28;19918;-83
2022/02/21 00:52:51;;;;;;;;;;;6.60;99.90;;;;;;5010052;28;19917;-83
2022/02/21 00:55:17;;;;;;;;;;;6.50;99.90;;;;;;5010746;28;20265;-83
2022/02/21 00:57:43;;;;;;;;;;;6.50;99.90;;;;;;4992738;28;19925;-82
2022/02/21 01:00:09;;;;;;;;;;;6.50;99.90;;;;;;5008641;28;19914;-84
2022/02/21 01:02:35;;;;;;;;;;;6.50;99.90;;;;;;4987236;28;19922;-82
2022/02/21 01:05:00;;;;;;;;;;;6.50;99.90;;;;;;4986740;28;20335;-82
2022/02/21 01:07:26;;;;;;;;;;;6.50;99.90;;;;;;5008171;28;19967;-83
2022/02/21 01:09:51;;;;;;;;;;;6.50;99.90;;;;;;4995873;28;19917;-82
2022/02/21 01:12:17;;;;;;;;;;;6.50;99.90;;;;;;4978157;28;20402;-82
2022/02/21 01:14:43;;;;;;;;;;;6.50;99.90;;;;;;5010710;28;20299;-82
2022/02/21 01:17:09;;;;;;;;;;;6.50;99.90;;;;;;5008893;28;19920;-82
2022/02/21 01:19:34;;;;;;;;;;;6.50;99.90;;;;;;4993623;28;19954;-83
2022/02/21 01:22:03;;;;;;;;;;;6.50;99.90;;;;;;5008888;28;19932;-81
2022/02/21 01:24:31;;;;;;;;;;;6.50;99.90;;;;;;5004679;28;19918;-82
2022/02/21 01:26:57;;;;;;;;;;;6.50;99.90;;;;;;4995583;28;19918;-82
2022/02/21 01:29:23;;;;;;;;;;;6.50;99.90;;;;;;5014243;28;19924;-84
2022/02/21 01:31:48;;;;;;;;;;;6.50;99.90;;;;;;4997888;28;20008;-82
2022/02/21 01:34:14;;;;;;;;;;;6.50;99.90;;;;;;4974859;28;19917;-82
2022/02/21 01:36:42;;;;;;;;;;;6.50;99.90;;;;;;5008956;28;19944;-82
2022/02/21 01:39:08;;;;;;;;;;;6.50;99.90;;;;;;4993747;28;19963;-81
2022/02/21 01:41:34;;;;;;;;;;;6.50;99.90;;;;;;4993875;28;19925;-81
2022/02/21 01:44:04;;;;;;;;;;;6.50;99.90;;;;;;5008406;28;19948;-81
2022/02/21 01:46:29;;;;;;;;;;;6.60;99.90;;;;;;5004724;28;19914;-82
2022/02/21 01:48:55;;;;;;;;;;;6.50;99.90;;;;;;4997264;28;19923;-82
2022/02/21 01:51:20;;;;;;;;;;;6.60;99.90;;;;;;5000184;28;19918;-84
2022/02/21 01:53:46;;;;;;;;;;;6.60;99.90;;;;;;5003408;28;19918;-83
2022/02/21 01:56:12;;;;;;;;;;;6.60;99.90;;;;;;4974047;28;19918;-82
2022/02/21 01:58:37;;;;;;;;;;;6.60;99.90;;;;;;5007671;28;19976;-83
2022/02/21 02:01:03;;;;;;;;;;;6.60;99.90;;;;;;4990895;28;19921;-83
2022/02/21 02:03:29;;;;;;;;;;;6.70;99.90;;;;;;4990702;28;20343;-81
2022/02/21 02:05:56;;;;;;;;;;;6.70;99.90;;;;;;5013077;28;19913;-81
2022/02/21 02:08:21;;;;;;;;;;;6.70;99.90;;;;;;5012005;28;20039;-82
2022/02/21 02:10:47;;;;;;;;;;;6.80;99.90;;;;;;5004993;28;19953;-81
2022/02/21 02:13:13;;;;;;;;;;;6.80;99.90;;;;;;5000731;28;19953;-82
2022/02/21 02:15:38;;;;;;;;;;;6.80;99.90;;;;;;5009688;28;19918;-81
2022/02/21 02:18:04;;;;;;;;;;;6.80;99.90;;;;;;5001798;28;20425;-82
2022/02/21 02:20:30;;;;;;;;;;;6.90;99.90;;;;;;5011157;28;19913;-82
2022/02/21 02:22:55;;;;;;;;;;;6.90;99.90;;;;;;5014620;28;19968;-84
2022/02/21 02:25:21;;;;;;;;;;;6.90;99.90;;;;;;5012426;28;19921;-83
2022/02/21 02:27:48;;;;;;;;;;;6.90;99.90;;;;;;4985528;28;19917;-81
2022/02/21 02:30:14;;;;;;;;;;;7.00;99.90;;;;;;5029458;28;19917;-81
2022/02/21 02:32:39;;;;;;;;;;;7.00;99.90;;;;;;5010625;28;19921;-83
2022/02/21 02:35:05;;;;;;;;;;;7.00;99.90;;;;;;5011599;28;20340;-82
2022/02/21 02:37:31;;;;;;;;;;;7.00;99.90;;;;;;5009363;28;19921;-83
2022/02/21 02:39:58;;;;;;;;;;;7.00;99.90;;;;;;5012887;28;20298;-82
2022/02/21 02:42:23;;;;;;;;;;;7.00;99.90;;;;;;4996546;28;19922;-80
2022/02/21 02:44:49;;;;;;;;;;;7.10;99.90;;;;;;5018124;28;20296;-81
2022/02/21 02:47:15;;;;;;;;;;;7.10;99.90;;;;;;5009041;28;20308;-81
2022/02/21 02:49:41;;;;;;;;;;;7.10;99.90;;;;;;4993095;28;20174;-83
2022/02/21 02:52:07;;;;;;;;;;;7.20;99.90;;;;;;5012757;28;19913;-82
2022/02/21 02:54:33;;;;;;;;;;;7.20;99.90;;;;;;5008250;28;19917;-80
2022/02/21 02:56:58;;;;;;;;;;;7.20;99.90;;;;;;4995891;28;19919;-82
2022/02/21 02:59:25;;;;;;;;;;;7.20;99.90;;;;;;4992356;28;19995;-81
2022/02/21 03:01:51;;;;;;;;;;;7.20;99.90;;;;;;5009465;28;19921;-82
2022/02/21 03:04:17;;;;;;;;;;;7.20;99.90;;;;;;4991477;28;20022;-82
2022/02/21 03:06:43;;;;;;;;;;;7.10;99.90;;;;;;4999663;28;19957;-80
2022/02/21 03:09:09;;;;;;;;;;;7.20;99.90;;;;;;4995446;28;20402;-82
2022/02/21 03:11:34;;;;;;;;;;;7.20;99.90;;;;;;4996019;28;19913;-81
2022/02/21 03:14:00;;;;;;;;;;;7.20;99.90;;;;;;4990818;28;19924;-82
2022/02/21 03:16:27;;;;;;;;;;;7.20;99.90;;;;;;4995980;28;19921;-81
2022/02/21 03:18:52;;;;;;;;;;;7.30;99.90;;;;;;4993147;28;20431;-82
2022/02/21 03:21:18;;;;;;;;;;;7.30;99.90;;;;;;5012144;28;20008;-81
2022/02/21 03:23:44;;;;;;;;;;;7.30;99.90;;;;;;4990272;28;19997;-82
2022/02/21 03:26:09;;;;;;;;;;;7.30;99.90;;;;;;4993690;28;19978;-80
2022/02/21 03:28:35;;;;;;;;;;;7.30;99.90;;;;;;5009655;28;19913;-80
2022/02/21 03:31:00;;;;;;;;;;;7.40;99.90;;;;;;4989014;28;20028;-81
2022/02/21 03:33:26;;;;;;;;;;;7.30;99.90;;;;;;4995476;28;19920;-81
2022/02/21 03:35:52;;;;;;;;;;;7.40;99.90;;;;;;4978663;28;20299;-81
2022/02/21 03:38:17;;;;;;;;;;;7.40;99.90;;;;;;4971035;28;19925;-80
2022/02/21 03:40:43;;;;;;;;;;;7.40;99.90;;;;;;5012449;28;19913;-82
2022/02/21 03:43:11;;;;;;;;;;;7.40;99.90;;;;;;4995698;28;20008;-82
2022/02/21 03:45:37;;;;;;;;;;;7.40;99.90;;;;;;4992959;28;20336;-81
2022/02/21 03:48:03;;;;;;;;;;;7.40;99.90;;;;;;4994286;28;19955;-82
2022/02/21 03:50:28;;;;;;;;;;;7.40;99.90;;;;;;4977711;28;19918;-81
2022/02/21 03:52:54;;;;;;;;;;;7.30;99.90;;;;;;5008716;28;19913;-80
2022/02/21 03:55:20;;;;;;;;;;;7.20;99.90;;;;;;5010518;28;19914;-80
2022/02/21 03:57:46;;;;;;;;;;;6.80;99.90;;;;;;5008519;28;19993;-80
2022/02/21 04:00:13;;;;;;;;;;;6.30;99.90;;;;;;4998082;28;19926;-80
2022/02/21 04:02:39;;;;;;;;;;;5.70;99.90;;;;;;5027847;28;19975;-80
2022/02/21 04:05:05;;;;;;;;;;;5.20;99.90;;;;;;5012850;28;19913;-81
2022/02/21 04:07:31;;;;;;;;;;;4.80;99.90;;;;;;4994613;28;19913;-80
2022/02/21 04:09:57;;;;;;;;;;;4.40;99.90;;;;;;5012960;28;19914;-79
2022/02/21 04:12:22;;;;;;;;;;;4.10;99.90;;;;;;5012601;28;19921;-80
2022/02/21 04:14:48;;;;;;;;;;;3.90;99.90;;;;;;5006738;28;19926;-80
2022/02/21 04:17:13;;;;;;;;;;;3.70;99.90;;;;;;4998601;28;19949;-80
2022/02/21 04:19:39;;;;;;;;;;;3.50;99.90;;;;;;5011024;28;19964;-79
2022/02/21 04:22:09;;;;;;;;;;;3.30;99.90;;;;;;5008210;28;19922;-80
2022/02/21 04:24:35;;;;;;;;;;;3.20;99.90;;;;;;5007903;28;20406;-80
2022/02/21 04:27:00;;;;;;;;;;;3.10;99.90;;;;;;5001226;28;20004;-80
2022/02/21 04:29:26;;;;;;;;;;;3.00;99.90;;;;;;5001522;28;19940;-80
2022/02/21 04:31:51;;;;;;;;;;;3.00;99.90;;;;;;5012329;28;20605;-80
2022/02/21 04:34:17;;;;;;;;;;;2.90;99.90;;;;;;5011146;28;19913;-80
2022/02/21 04:36:43;;;;;;;;;;;2.90;99.90;;;;;;4999400;28;19913;-80
2022/02/21 04:39:08;;;;;;;;;;;2.80;99.90;;;;;;5018661;28;19914;-80
2022/02/21 04:41:34;;;;;;;;;;;2.80;99.90;;;;;;5000365;28;19924;-79
2022/02/21 04:44:00;;;;;;;;;;;2.80;99.90;;;;;;5008805;28;20358;-80
2022/02/21 04:46:25;;;;;;;;;;;2.80;99.90;;;;;;4987640;28;21106;-79
2022/02/21 04:48:51;;;;;;;;;;;2.80;99.90;;;;;;4993521;28;19926;-79
2022/02/21 04:51:17;;;;;;;;;;;2.70;99.90;;;;;;5012053;28;19917;-80
2022/02/21 04:53:42;;;;;;;;;;;2.70;99.90;;;;;;5027259;28;19922;-79
2022/02/21 04:56:08;;;;;;;;;;;2.80;99.90;;;;;;4997906;28;19924;-79
2022/02/21 04:58:34;;;;;;;;;;;2.80;99.90;;;;;;4991138;28;20355;-80
2022/02/21 05:00:59;;;;;;;;;;;2.80;99.90;;;;;;5010402;28;19960;-79
2022/02/21 05:03:25;;;;;;;;;;;2.70;99.90;;;;;;5004592;28;20032;-80
2022/02/21 05:05:50;;;;;;;;;;;2.70;99.90;;;;;;4990290;28;20400;-80
2022/02/21 05:08:16;;;;;;;;;;;2.70;99.90;;;;;;5007184;28;19918;-79
2022/02/21 05:10:42;;;;;;;;;;;2.80;99.90;;;;;;5008356;28;20012;-79
2022/02/21 05:13:07;;;;;;;;;;;2.70;99.90;;;;;;5000911;28;19917;-80
2022/02/21 05:15:33;;;;;;;;;;;2.70;99.90;;;;;;5006065;28;19932;-80
2022/02/21 05:17:59;;;;;;;;;;;2.70;99.90;;;;;;5011496;28;19972;-80
2022/02/21 05:20:25;;;;;;;;;;;2.80;99.90;;;;;;5004956;28;20422;-80
2022/02/21 05:22:51;;;;;;;;;;;2.80;99.90;;;;;;5004758;28;19917;-79
2022/02/21 05:25:17;;;;;;;;;;;2.80;99.90;;;;;;5011626;28;19925;-80
2022/02/21 05:27:43;;;;;;;;;;;2.80;99.90;;;;;;5007513;28;19910;-80
2022/02/21 05:30:09;;;;;;;;;;;2.80;99.90;;;;;;5000194;28;20384;-80
2022/02/21 05:32:35;;;;;;;;;;;2.80;99.90;;;;;;4986255;28;20295;-79
2022/02/21 05:35:01;;;;;;;;;;;2.80;99.90;;;;;;5007024;28;19918;-79
2022/02/21 05:37:26;;;;;;;;;;;2.90;99.90;;;;;;5004554;28;19914;-80
2022/02/21 05:39:52;;;;;;;;;;;2.90;99.90;;;;;;5014909;28;20004;-80
2022/02/21 05:42:18;;;;;;;;;;;2.90;99.90;;;;;;4997606;28;19922;-80
2022/02/21 05:44:43;;;;;;;;;;;2.90;99.90;;;;;;5013748;28;20011;-79
2022/02/21 05:47:09;;;;;;;;;;;2.90;99.90;;;;;;5006638;28;20372;-80
2022/02/21 05:49:35;;;;;;;;;;;2.90;99.90;;;;;;5018549;28;19973;-80
2022/02/21 05:52:01;;;;;;;;;;;3.00;99.90;;;;;;5024466;28;19980;-80
2022/02/21 05:54:26;;;;;;;;;;;3.00;99.90;;;;;;5013836;28;19917;-80
2022/02/21 05:56:52;;;;;;;;;;;3.00;99.90;;;;;;4997358;28;19925;-80
2022/02/21 05:59:18;;;;;;;;;;;3.00;99.90;;;;;;5011593;28;19913;-80
2022/02/21 06:01:44;;;;;;;;;;;3.00;99.90;;;;;;5003305;28;20037;-80
2022/02/21 06:04:10;;;;;;;;;;;3.00;99.90;;;;;;5004602;28;19918;-80
2022/02/21 06:06:35;;;;;;;;;;;3.00;99.90;;;;;;5013760;28;20326;-80
2022/02/21 06:09:04;;;;;;;;;;;3.00;99.90;;;;;;4989988;28;20057;-80
2022/02/21 06:11:30;;;;;;;;;;;3.00;99.90;;;;;;5013736;28;19913;-80
2022/02/21 06:13:56;;;;;;;;;;;3.00;99.90;;;;;;5011422;28;20004;-80
2022/02/21 06:16:21;;;;;;;;;;;3.00;99.90;;;;;;5005541;28;19928;-79
2022/02/21 06:18:47;;;;;;;;;;;2.90;99.90;;;;;;5003930;28;19921;-80
2022/02/21 06:21:13;;;;;;;;;;;2.90;99.90;;;;;;5006927;28;19925;-80
2022/02/21 06:23:39;;;;;;;;;;;2.80;99.90;;;;;;5010931;28;19976;-79
2022/02/21 06:26:05;;;;;;;;;;;2.70;99.90;;;;;;5010553;28;20604;-79
2022/02/21 06:28:30;;;;;;;;;;;2.80;99.90;;;;;;5003250;28;19918;-80
2022/02/21 06:30:56;;;;;;;;;;;2.70;99.90;;;;;;5003753;28;20439;-79
2022/02/21 06:33:22;;;;;;;;;;;2.60;99.90;;;;;;5013816;28;19932;-80
2022/02/21 06:35:47;;;;;;;;;;;2.60;99.90;;;;;;5002332;28;20364;-79
2022/02/21 06:38:13;;;;;;;;;;;2.50;99.90;;;;;;5011140;28;19913;-80
2022/02/21 06:40:39;;;;;;;;;;;2.50;99.90;;;;;;4992407;28;20788;-80
2022/02/21 06:43:04;;;;;;;;;;;2.60;99.90;;;;;;5003820;28;19963;-80
2022/02/21 06:45:30;;;;;;;;;;;2.60;99.90;;;;;;5024025;28;20288;-80
2022/02/21 06:47:56;;;;;;;;;;;2.50;99.90;;;;;;5010087;28;19917;-79
2022/02/21 06:50:22;;;;;;;;;;;2.50;99.90;;;;;;5008271;28;19917;-79
2022/02/21 06:52:48;;;;;;;;;;;2.50;99.90;;;;;;5004771;28;19921;-79
2022/02/21 06:55:14;;;;;;;;;;;2.50;99.90;;;;;;5012776;28;19999;-80
2022/02/21 06:57:40;;;;;;;;;;;2.50;99.90;;;;;;5008406;28;20065;-79
2022/02/21 07:00:06;;;;;;;;;;;2.50;99.90;;;;;;5010432;28;20380;-79
2022/02/21 07:02:32;;;;;;;;;;;2.50;99.90;;;;;;5006228;28;19932;-80
2022/02/21 07:04:57;;;;;;;;;;;2.50;99.90;;;;;;5001333;28;19949;-79
2022/02/21 07:07:23;;;;;;;;;;;2.50;99.90;;;;;;5004970;28;21299;-80
2022/02/21 07:09:48;;;;;;;;;;;2.50;99.90;;;;;;5011117;28;19917;-79
2022/02/21 07:12:14;;;;;;;;;;;2.50;99.90;;;;;;5003478;28;19918;-80
2022/02/21 07:14:39;;;;;;;;;;;2.50;99.90;;;;;;5008125;28;19921;-80
2022/02/21 07:17:05;;;;;;;;;;;2.50;99.90;;;;;;5006914;28;19925;-80
2022/02/21 07:19:31;;;;;;;;;;;2.50;99.90;;;;;;5003198;28;19918;-80
2022/02/21 07:21:56;;;;;;;;;;;2.60;99.90;;;;;;4998871;28;19972;-80
2022/02/21 07:24:22;;;;;;;;;;;2.60;99.90;;;;;;5007708;28;19924;-80
2022/02/21 07:26:48;;;;;;;;;;;2.70;99.90;;;;;;5006744;28;20323;-80
2022/02/21 07:29:13;;;;;;;;;;;2.70;99.90;;;;;;4983788;28;19918;-80
2022/02/21 07:31:39;;;;;;;;;;;2.70;99.90;;;;;;5027695;28;19922;-80
2022/02/21 07:34:04;;;;;;;;;;;2.70;99.90;;;;;;5008884;28;20384;-80
2022/02/21 07:36:31;;;;;;;;;;;2.80;99.90;;;;;;5003081;28;20439;-80
2022/02/21 07:38:57;;;;;;;;;;;2.80;99.90;;;;;;4993894;28;20004;-80
2022/02/21 07:41:23;;;;;;;;;;;2.80;99.90;;;;;;5007797;28;20362;-80
2022/02/21 07:43:48;;;;;;;;;;;2.90;99.90;;;;;;5004582;28;19918;-80
2022/02/21 07:46:14;;;;;;;;;;;2.90;99.90;;;;;;5012392;28;20453;-80
2022/02/21 07:48:39;;;;;;;;;;;2.90;99.90;;;;;;5009336;28;20016;-80
2022/02/21 07:51:06;;;;;;;;;;;2.90;99.90;;;;;;5002789;28;20300;-80
2022/02/21 07:53:32;;;;;;;;;;;3.00;99.90;;;;;;4976929;28;19922;-80
2022/02/21 07:55:57;;;;;;;;;;;2.90;99.90;;;;;;4989155;28;19983;-80
2022/02/21 07:58:23;;;;;;;;;;;2.90;99.90;;;;;;5008516;28;20017;-79
2022/02/21 08:00:49;;;;;;;;;;;2.90;99.90;;;;;;5001677;28;20453;-80
2022/02/21 08:03:14;;;;;;;;;;;2.80;99.90;;;;;;4994951;28;19922;-80
2022/02/21 08:05:40;;;;;;;;;;;2.80;99.90;;;;;;5003584;28;19922;-80
2022/02/21 08:08:06;;;;;;;;;;;2.70;99.90;;;;;;5006970;28;20376;-80
2022/02/21 08:10:31;;;;;;;;;;;2.70;99.90;;;;;;4995175;28;19954;-80
2022/02/21 08:12:57;;;;;;;;;;;2.70;99.90;;;;;;5010111;28;20000;-80
2022/02/21 08:15:23;;;;;;;;;;;2.70;99.90;;;;;;4976646;28;19924;-80
2022/02/21 08:17:48;;;;;;;;;;;2.70;99.90;;;;;;5006578;28;19950;-80
2022/02/21 08:20:21;;;;;;;;;;;2.70;99.90;;;;;;5008243;28;19953;-80
2022/02/21 08:22:47;;;;;;;;;;;2.80;99.90;;;;;;5012171;28;19921;-80
2022/02/21 08:25:13;;;;;;;;;;;2.80;99.90;;;;;;5002839;28;20285;-81
2022/02/21 08:27:39;;;;;;;;;;;2.80;99.90;;;;;;5001097;28;20380;-80
2022/02/21 08:30:06;;;;;;;;;;;2.80;99.90;;;;;;5010870;28;19937;-80
2022/02/21 08:32:32;;;;;;;;;;;2.90;99.90;;;;;;5003685;28;19949;-80
2022/02/21 08:34:57;;;;;;;;;;;2.90;99.90;;;;;;5013266;28;19961;-81
2022/02/21 08:37:23;;;;;;;;;;;3.00;99.90;;;;;;4989298;28;19926;-80
2022/02/21 08:39:49;;;;;;;;;;;3.10;99.90;;;;;;5003641;28;19968;-80
2022/02/21 08:42:14;;;;;;;;;;;3.10;99.90;;;;;;4993147;28;20347;-79
2022/02/21 08:44:40;;;;;;;;;;;3.20;99.90;;;;;;5008946;28;19925;-81
2022/02/21 08:47:05;;;;;;;;;;;3.20;99.90;;;;;;4987223;28;20044;-80
2022/02/21 08:49:31;;;;;;;;;;;3.30;99.90;;;;;;4999148;28;19926;-80
2022/02/21 08:51:57;;;;;;;;;;;3.30;99.90;;;;;;4997643;28;19921;-80
2022/02/21 08:54:23;;;;;;;;;;;3.40;99.90;;;;;;5006666;28;19972;-81
2022/02/21 08:56:49;;;;;;;;;;;3.40;99.90;;;;;;5008061;28;20007;-80
2022/02/21 08:59:18;;;;;;;;;;;3.50;99.90;;;;;;4992946;28;19921;-79
2022/02/21 09:01:44;;;;;;;;;;;3.50;99.90;;;;;;4994184;28;20402;-79
2022/02/21 09:04:13;;;;;;;;;;;3.50;99.90;;;;;;5002901;28;19917;-80
2022/02/21 09:06:39;;;;;;;;;;;3.50;99.90;;;;;;5000989;28;19914;-80
2022/02/21 09:09:05;;;;;;;;;;;3.60;99.90;;;;;;4986585;28;20308;-81
2022/02/21 09:11:30;;;;;;;;;;;3.60;99.90;;;;;;5004270;28;19925;-80
2022/02/21 09:13:56;;;;;;;;;;;3.60;99.90;;;;;;5004879;28;20020;-80
2022/02/21 09:16:22;;;;;;;;;;;3.60;99.90;;;;;;4982821;28;19974;-80
2022/02/21 09:18:47;;;;;;;;;;;3.70;99.90;;;;;;5002182;28;19913;-80
2022/02/21 09:21:13;;;;;;;;;;;3.60;99.90;;;;;;5006580;28;19914;-80
2022/02/21 09:23:39;;;;;;;;;;;3.60;99.90;;;;;;4992982;28;19920;-80
2022/02/21 09:26:04;;;;;;;;;;;3.60;99.90;;;;;;4994821;28;19909;-79
2022/02/21 09:28:30;;;;;;;;;;;3.60;99.90;;;;;;5007836;28;19982;-81
2022/02/21 09:30:56;;;;;;;;;;;3.60;99.90;;;;;;5001060;28;19922;-80
2022/02/21 09:33:22;;;;;;;;;;;3.70;99.90;;;;;;5008829;28;19991;-79
2022/02/21 09:35:48;;;;;;;;;;;3.80;99.90;;;;;;4975603;28;19957;-80
2022/02/21 09:38:14;;;;;;;;;;;3.80;99.90;;;;;;5005658;28;19917;-82
2022/02/21 09:40:41;;;;;;;;;;;3.80;99.90;;;;;;5008523;28;19952;-81
2022/02/21 09:43:07;;;;;;;;;;;3.80;99.90;;;;;;5007938;28;19917;-80
2022/02/21 09:45:35;;;;;;;;;;;3.70;99.90;;;;;;4998170;28;19968;-81
2022/02/21 09:48:02;;;;;;;;;;;3.70;99.90;;;;;;5033649;22;20311;-81
2022/02/21 09:50:28;;;;;;;;;;;3.80;99.90;;;;;;4984965;28;19961;-82
2022/02/21 09:53:00;;;;;;;;;;;3.80;99.90;;;;;;4997344;28;19909;-83
2022/02/21 09:55:26;;;;;;;;;;;3.80;99.90;;;;;;5013459;28;20379;-82
2022/02/21 09:57:52;;;;;;;;;;;3.70;99.90;;;;;;4993622;28;19914;-83
2022/02/21 10:00:17;;;;;;;;;;;3.70;99.90;;;;;;4977949;28;19972;-82
2022/02/21 10:02:45;;;;;;;;;;;3.70;99.90;;;;;;4994491;28;19922;-83
2022/02/21 10:05:15;;;;;;;;;;;3.80;99.90;;;;;;4976971;28;19918;-83
2022/02/21 10:07:41;;;;;;;;;;;3.90;99.90;;;;;;4959840;28;19929;-83
2022/02/21 10:10:08;;;;;;;;;;;4.00;99.90;;;;;;4977401;28;20038;-83
2022/02/21 10:12:47;;;;;;;;;;;4.10;99.90;;;;;;4963164;28;20442;-84
2022/02/21 10:15:14;;;;;;;;;;;4.10;99.90;;;;;;4993835;28;20003;-83
2022/02/21 10:17:39;;;;;;;;;;;4.20;99.90;;;;;;4991065;28;19929;-83
2022/02/21 10:20:05;;;;;;;;;;;4.20;99.90;;;;;;4970769;28;19918;-84
2022/02/21 10:22:34;;;;;;;;;;;4.30;99.90;;;;;;5008113;28;20012;-83
2022/02/21 10:25:00;;;;;;;;;;;4.30;99.90;;;;;;4977178;28;19913;-83
2022/02/21 10:27:28;;;;;;;;;;;4.40;99.90;;;;;;4976471;28;20434;-83
2022/02/21 10:29:55;;;;;;;;;;;4.40;99.90;;;;;;4993635;28;20295;-83
2022/02/21 10:32:25;;;;;;;;;;;4.40;99.90;;;;;;5003562;28;20269;-83
2022/02/21 10:34:51;;;;;;;;;;;4.40;99.90;;;;;;4973714;28;20404;-83
2022/02/21 10:37:22;;;;;;;;;;;4.40;99.90;;;;;;4986186;28;20315;-83
2022/02/21 10:39:48;;;;;;;;;;;4.40;99.90;;;;;;4982696;28;19969;-83
2022/02/21 10:42:24;;;;;;;;;;;4.50;99.90;;;;;;4990697;28;19921;-83
2022/02/21 10:44:49;;;;;;;;;;;4.70;99.90;;;;;;4985588;28;19914;-84
2022/02/21 10:47:17;;;;;;;;;;;4.70;99.90;;;;;;4974945;28;20346;-83
2022/02/21 10:49:44;;;;;;;;;;;4.80;99.90;;;;;;4975686;28;19964;-82
2022/02/21 10:52:11;;;;;;;;;;;4.80;99.90;;;;;;4976386;28;19944;-82
2022/02/21 10:54:37;;;;;;;;;;;4.90;99.90;;;;;;4977060;28;19921;-83
2022/02/21 10:57:06;;;;;;;;;;;4.90;99.90;;;;;;4985412;28;19914;-83
2022/02/21 10:59:32;;;;;;;;;;;5.00;99.90;;;;;;4975115;28;19913;-82
2022/02/21 11:01:58;;;;;;;;;;;5.00;99.90;;;;;;4985147;28;19929;-82
2022/02/21 11:04:24;;;;;;;;;;;5.00;99.90;;;;;;4976972;28;19917;-83
2022/02/21 11:06:51;;;;;;;;;;;5.10;99.90;;;;;;4990460;28;20364;-83
2022/02/21 11:09:19;;;;;;;;;;;5.10;99.90;;;;;;4987595;28;19952;-83
2022/02/21 11:11:49;;;;;;;;;;;5.20;99.90;;;;;;4993056;28;20382;-83
2022/02/21 11:14:19;;;;;;;;;;;5.20;99.90;;;;;;4976624;28;20017;-83
2022/02/21 11:16:48;;;;;;;;;;;5.30;99.90;;;;;;4991880;28;19918;-83
2022/02/21 11:19:15;;;;;;;;;;;5.40;99.90;;;;;;4972476;28;19965;-82
2022/02/21 11:21:41;;;;;;;;;;;5.40;99.90;;;;;;4987388;28;19918;-81
2022/02/21 11:24:07;;;;;;;;;;;5.50;99.90;;;;;;4981447;28;19913;-83
2022/02/21 11:26:36;;;;;;;;;;;5.70;99.90;;;;;;4990871;28;19956;-83
2022/02/21 11:29:05;;;;;;;;;;;5.80;99.90;;;;;;4989962;28;19914;-83
2022/02/21 11:31:34;;;;;;;;;;;6.00;99.90;;;;;;4987876;28;19914;-83
2022/02/21 11:34:02;;;;;;;;;;;6.20;99.90;;;;;;4994537;28;19922;-82
2022/02/21 11:36:28;;;;;;;;;;;6.20;99.90;;;;;;4993908;28;19922;-84
2022/02/21 11:38:54;;;;;;;;;;;6.20;99.90;;;;;;4994571;28;19924;-84
2022/02/21 11:41:28;;;;;;;;;;;6.20;99.90;;;;;;4995834;28;19913;-82
2022/02/21 11:43:54;;;;;;;;;;;6.10;99.90;;;;;;4990907;28;19918;-81
2022/02/21 11:46:24;;;;;;;;;;;6.10;99.90;;;;;;4975044;28;19918;-83
2022/02/21 11:48:57;;;;;;;;;;;6.00;99.90;;;;;;4989224;28;20376;-80
2022/02/21 11:51:24;;;;;;;;;;;5.90;99.90;;;;;;5003028;28;19918;-81
2022/02/21 11:53:49;;;;;;;;;;;5.90;99.90;;;;;;5007579;28;20380;-82
2022/02/21 11:56:15;;;;;;;;;;;5.90;99.90;;;;;;4990779;28;19928;-82
2022/02/21 11:58:45;;;;;;;;;;;5.90;99.90;;;;;;4971913;28;19922;-81
2022/02/21 12:01:12;;;;;;;;;;;5.90;99.90;;;;;;4972242;28;19941;-80
2022/02/21 12:03:38;;;;;;;;;;;5.90;99.90;;;;;;4970439;28;19921;-81
2022/02/21 12:06:03;;;;;;;;;;;5.90;99.90;;;;;;4987743;28;19918;-81
2022/02/21 12:08:29;;;;;;;;;;;5.90;99.90;;;;;;4985995;28;20376;-80
2022/02/21 12:11:00;;;;;;;;;;;5.80;99.90;;;;;;4988267;28;20359;-81
2022/02/21 12:13:26;;;;;;;;;;;5.70;99.90;;;;;;4969575;28;19914;-81
2022/02/21 12:15:59;;;;;;;;;;;5.70;99.90;;;;;;4976772;28;19956;-81
2022/02/21 12:18:29;;;;;;;;;;;5.60;99.90;;;;;;5003503;28;19965;-80
2022/02/21 12:21:07;;;;;;;;;;;5.60;99.90;;;;;;4988486;28;19922;-81
2022/02/21 12:23:35;;;;;;;;;;;5.60;99.90;;;;;;4984393;28;20199;-80
2022/02/21 12:26:00;;;;;;;;;;;5.50;99.90;;;;;;4972133;28;19918;-81
2022/02/21 12:28:28;;;;;;;;;;;5.50;99.90;;;;;;4976375;28;19914;-80
2022/02/21 12:30:54;;;;;;;;;;;5.50;99.90;;;;;;5000995;28;19956;-81
2022/02/21 12:33:27;;;;;;;;;;;5.50;99.90;;;;;;4965034;28;19914;-81
2022/02/21 12:35:54;;;;;;;;;;;5.50;99.90;;;;;;4988396;28;19945;-81
2022/02/21 12:38:21;;;;;;;;;;;5.40;99.90;;;;;;4973898;28;19930;-81
2022/02/21 12:41:02;;;;;;;;;;;5.40;99.90;;;;;;4986531;28;19914;-80
2022/02/21 12:43:42;;;;;;;;;;;5.40;99.90;;;;;;4981523;28;20369;-80
2022/02/21 12:46:08;;;;;;;;;;;5.40;99.90;;;;;;4974055;28;19914;-81
2022/02/21 12:48:37;;;;;;;;;;;5.40;99.90;;;;;;4973758;28;20327;-80
2022/02/21 12:51:02;;;;;;;;;;;5.40;99.90;;;;;;4975008;28;19921;-80
2022/02/21 12:53:28;;;;;;;;;;;5.40;99.90;;;;;;4992276;28;20367;-81
2022/02/21 12:56:00;;;;;;;;;;;5.40;99.90;;;;;;5001102;28;19918;-80
2022/02/21 12:58:38;;;;;;;;;;;5.30;99.90;;;;;;5000931;28;19914;-81
2022/02/21 13:01:13;;;;;;;;;;;5.30;99.90;;;;;;4974559;28;19917;-81
2022/02/21 13:03:39;;;;;;;;;;;5.20;99.90;;;;;;4970069;28;19984;-81
2022/02/21 13:06:04;;;;;;;;;;;5.20;99.90;;;;;;4983890;28;20361;-81
2022/02/21 13:08:35;;;;;;;;;;;5.20;99.90;;;;;;4999266;28;19929;-81
2022/02/21 13:11:00;;;;;;;;;;;5.20;99.90;;;;;;5005368;28;20299;-80
2022/02/21 13:13:26;;;;;;;;;;;5.20;99.90;;;;;;4987964;28;19918;-80
2022/02/21 13:15:52;;;;;;;;;;;5.10;99.90;;;;;;4973674;28;19925;-80
2022/02/21 13:18:18;;;;;;;;;;;5.20;99.90;;;;;;4991884;28;19918;-80
2022/02/21 13:20:45;;;;;;;;;;;5.20;99.90;;;;;;4973665;28;20026;-81
2022/02/21 13:23:11;;;;;;;;;;;5.20;99.90;;;;;;4990189;28;19925;-80
2022/02/21 13:25:37;;;;;;;;;;;5.30;99.90;;;;;;4988868;28;19925;-80
2022/02/21 13:28:16;;;;;;;;;;;5.40;99.90;;;;;;4990055;28;20284;-80
2022/02/21 13:30:41;;;;;;;;;;;5.40;99.90;;;;;;4974249;28;19941;-81
2022/02/21 13:33:07;;;;;;;;;;;5.40;99.90;;;;;;4977547;28;20372;-81
2022/02/21 13:35:34;;;;;;;;;;;5.50;99.90;;;;;;4997609;28;19921;-81
2022/02/21 13:38:00;;;;;;;;;;;5.50;99.90;;;;;;5001738;28;19918;-80
2022/02/21 13:40:26;;;;;;;;;;;5.60;99.90;;;;;;4971467;28;20296;-80
2022/02/21 13:42:51;;;;;;;;;;;5.60;99.90;;;;;;4984376;28;19924;-80
2022/02/21 13:45:20;;;;;;;;;;;5.60;99.90;;;;;;4977577;28;19914;-80
2022/02/21 13:47:56;;;;;;;;;;;5.50;99.90;;;;;;4971995;28;19918;-81
2022/02/21 13:50:32;;;;;;;;;;;5.50;99.90;;;;;;4970819;28;19914;-80
2022/02/21 13:52:58;;;;;;;;;;;5.40;99.90;;;;;;4967348;28;19920;-81
2022/02/21 13:55:25;;;;;;;;;;;5.30;99.90;;;;;;4989971;28;19914;-80
2022/02/21 13:58:01;;;;;;;;;;;5.30;99.90;;;;;;4987905;28;19918;-80
2022/02/21 14:00:53;;;;;;;;;;;5.30;99.90;;;;;;4982781;28;20013;-80
2022/02/21 14:03:19;;;;;;;;;;;5.30;99.90;;;;;;4985622;28;19918;-80
2022/02/21 14:06:11;;;;;;;;;;;5.30;99.90;;;;;;4983402;28;19914;-80
2022/02/21 14:08:41;;;;;;;;;;;5.30;99.90;;;;;;4985275;28;19914;-80
2022/02/21 14:11:07;;;;;;;;;;;5.30;99.90;;;;;;4984365;28;19921;-80
2022/02/21 14:13:33;;;;;;;;;;;5.40;99.90;;;;;;4987107;28;19922;-80
2022/02/21 14:15:59;;;;;;;;;;;5.50;99.90;;;;;;5002471;28;20284;-80
2022/02/21 14:18:25;;;;;;;;;;;5.50;99.90;;;;;;5007103;28;19922;-80
2022/02/21 14:20:51;;;;;;;;;;;5.50;99.90;;;;;;4989223;28;19952;-80
2022/02/21 14:23:16;;;;;;;;;;;5.40;99.90;;;;;;5007406;28;20423;-80
2022/02/21 14:25:42;;;;;;;;;;;5.40;99.90;;;;;;4962567;28;19918;-79
2022/02/21 14:28:08;;;;;;;;;;;5.40;99.90;;;;;;4985055;28;19914;-80